sensor_id;sensor_type;location;lat;lon;timestamp;temperature;humidity
7844;DHT22;3967;48.702;9.326;2022-09-01T00:01:36;16.80;99.90
7844;DHT22;3967;48.702;9.326;2022-09-01T00:04:08;16.80;99.90
7844;DHT22;3967;48.702;9.326;2022-09-01T00:06:36;16.90;99.90
7844;DHT22;3967;48.702;9.326;2022-09-01T00:09:09;16.90;99.90
7844;DHT22;3967;48.702;9.326;2022-09-01T00:11:36;16.90;99.90
7844;DHT22;3967;48.702;9.326;2022-09-01T00:14:05;16.90;99.90
7844;DHT22;3967;48.702;9.326;2022-09-01T00:16:49;17.00;99.90
7844;DHT22;3967;48.702;9.326;2022-09-01T00:19:17;17.00;99.90
7844;DHT22;3967;48.702;9.326;2022-09-01T00:21:44;16.90;99.90
7844;DHT22;3967;48.702;9.326;2022-09-01T00:24:13;16.80;99.90
7844;DHT22;3967;48.702;9.326;2022-09-01T00:26:40;16.80;99.90
7844;DHT22;3967;48.702;9.326;2022-09-01T00:29:07;16.70;99.90
7844;DHT22;3967;48.702;9.326;2022-09-01T00:31:34;16.40;99.90
7844;DHT22;3967;48.702;9.326;2022-09-01T00:34:01;16.40;99.90
7844;DHT22;3967;48.702;9.326;2022-09-01T00:36:29;16.40;99.90
7844;DHT22;3967;48.702;9.326;2022-09-01T00:38:55;16.50;99.90
7844;DHT22;3967;48.702;9.326;2022-09-01T00:41:24;16.40;99.90
7844;DHT22;3967;48.702;9.326;2022-09-01T00:43:55;16.40;99.90
7844;DHT22;3967;48.702;9.326;2022-09-01T00:46:26;16.40;99.90
7844;DHT22;3967;48.702;9.326;2022-09-01T00:49:08;16.30;99.90
7844;DHT22;3967;48.702;9.326;2022-09-01T00:51:37;16.20;99.90
7844;DHT22;3967;48.702;9.326;2022-09-01T00:54:06;16.30;99.90
7844;DHT22;3967;48.702;9.326;2022-09-01T00:56:36;16.30;99.90
7844;DHT22;3967;48.702;9.326;2022-09-01T00:59:06;16.30;99.90
7844;DHT22;3967;48.702;9.326;2022-09-01T01:01:33;16.20;99.90
7844;DHT22;3967;48.702;9.326;2022-09-01T01:04:03;16.20;99.90
7844;DHT22;3967;48.702;9.326;2022-09-01T01:06:31;16.30;99.90
7844;DHT22;3967;48.702;9.326;2022-09-01T01:08:59;16.10;99.90
7844;DHT22;3967;48.702;9.326;2022-09-01T01:11:30;16.10;99.90
7844;DHT22;3967;48.702;9.326;2022-09-01T01:14:00;16.10;99.90
7844;DHT22;3967;48.702;9.326;2022-09-01T01:16:31;16.30;99.90
7844;DHT22;3967;48.702;9.326;2022-09-01T01:18:58;16.40;99.90
7844;DHT22;3967;48.702;9.326;2022-09-01T01:21:28;16.40;99.90
7844;DHT22;3967;48.702;9.326;2022-09-01T01:24:30;16.40;99.90
7844;DHT22;3967;48.702;9.326;2022-09-01T01:26:58;16.40;99.90
7844;DHT22;3967;48.702;9.326;2022-09-01T01:29:30;16.50;99.90
7844;DHT22;3967;48.702;9.326;2022-09-01T01:31:57;16.50;99.90
7844;DHT22;3967;48.702;9.326;2022-09-01T01:34:26;16.50;99.90
7844;DHT22;3967;48.702;9.326;2022-09-01T01:36:52;16.40;99.90
7844;DHT22;3967;48.702;9.326;2022-09-01T01:39:23;16.30;99.90
7844;DHT22;3967;48.702;9.326;2022-09-01T01:41:52;16.30;99.90
7844;DHT22;3967;48.702;9.326;2022-09-01T01:44:22;16.40;99.90
7844;DHT22;3967;48.702;9.326;2022-09-01T01:46:54;16.40;99.90
7844;DHT22;3967;48.702;9.326;2022-09-01T01:49:24;16.40;99.90
7844;DHT22;3967;48.702;9.326;2022-09-01T01:51:52;16.50;99.90
7844;DHT22;3967;48.702;9.326;2022-09-01T01:54:22;16.40;99.90
7844;DHT22;3967;48.702;9.326;2022-09-01T01:56:49;16.20;99.90
7844;DHT22;3967;48.702;9.326;2022-09-01T01:59:16;16.20;99.90
7844;DHT22;3967;48.702;9.326;2022-09-01T02:01:45;16.30;99.90
7844;DHT22;3967;48.702;9.326;2022-09-01T02:04:18;16.30;99.90
7844;DHT22;3967;48.702;9.326;2022-09-01T02:06:46;16.30;99.90
7844;DHT22;3967;48.702;9.326;2022-09-01T02:09:16;16.20;99.90
7844;DHT22;3967;48.702;9.326;2022-09-01T02:11:42;16.20;99.90
7844;DHT22;3967;48.702;9.326;2022-09-01T02:14:11;16.00;99.90
7844;DHT22;3967;48.702;9.326;2022-09-01T02:16:39;15.90;99.90
7844;DHT22;3967;48.702;9.326;2022-09-01T02:19:07;15.80;99.90
7844;DHT22;3967;48.702;9.326;2022-09-01T02:21:35;15.80;99.90
7844;DHT22;3967;48.702;9.326;2022-09-01T02:24:04;15.70;99.90
7844;DHT22;3967;48.702;9.326;2022-09-01T02:26:39;15.90;99.90
7844;DHT22;3967;48.702;9.326;2022-09-01T02:29:11;15.90;99.90
7844;DHT22;3967;48.702;9.326;2022-09-01T02:31:45;16.10;99.90
7844;DHT22;3967;48.702;9.326;2022-09-01T02:34:13;16.10;99.90
7844;DHT22;3967;48.702;9.326;2022-09-01T02:36:48;16.10;99.90
7844;DHT22;3967;48.702;9.326;2022-09-01T02:39:18;16.20;99.90
7844;DHT22;3967;48.702;9.326;2022-09-01T02:41:45;16.10;99.90
7844;DHT22;3967;48.702;9.326;2022-09-01T02:44:12;16.20;99.90
7844;DHT22;3967;48.702;9.326;2022-09-01T02:46:44;16.30;99.90
7844;DHT22;3967;48.702;9.326;2022-09-01T02:49:15;16.30;99.90
7844;DHT22;3967;48.702;9.326;2022-09-01T02:51:48;16.20;99.90
7844;DHT22;3967;48.702;9.326;2022-09-01T02:54:17;16.30;99.90
7844;DHT22;3967;48.702;9.326;2022-09-01T02:56:45;16.20;99.90
7844;DHT22;3967;48.702;9.326;2022-09-01T02:59:16;16.30;99.90
7844;DHT22;3967;48.702;9.326;2022-09-01T03:01:43;16.20;99.90
7844;DHT22;3967;48.702;9.326;2022-09-01T03:04:13;16.20;99.90
7844;DHT22;3967;48.702;9.326;2022-09-01T03:06:40;16.20;99.90
7844;DHT22;3967;48.702;9.326;2022-09-01T03:09:10;16.20;99.90
7844;DHT22;3967;48.702;9.326;2022-09-01T03:14:05;16.20;99.90
7844;DHT22;3967;48.702;9.326;2022-09-01T03:16:33;16.20;99.90
7844;DHT22;3967;48.702;9.326;2022-09-01T03:19:00;16.10;99.90
7844;DHT22;3967;48.702;9.326;2022-09-01T03:21:29;16.10;99.90
7844;DHT22;3967;48.702;9.326;2022-09-01T03:23:57;16.10;99.90
7844;DHT22;3967;48.702;9.326;2022-09-01T03:26:24;16.10;99.90
7844;DHT22;3967;48.702;9.326;2022-09-01T03:28:51;16.00;99.90
7844;DHT22;3967;48.702;9.326;2022-09-01T03:31:19;16.00;99.90
7844;DHT22;3967;48.702;9.326;2022-09-01T03:33:46;16.00;99.90
7844;DHT22;3967;48.702;9.326;2022-09-01T03:36:13;16.00;99.90
7844;DHT22;3967;48.702;9.326;2022-09-01T03:38:50;16.00;99.90
7844;DHT22;3967;48.702;9.326;2022-09-01T03:41:19;15.80;99.90
7844;DHT22;3967;48.702;9.326;2022-09-01T03:43:47;15.80;99.90
7844;DHT22;3967;48.702;9.326;2022-09-01T03:46:15;15.90;99.90
7844;DHT22;3967;48.702;9.326;2022-09-01T03:48:55;15.70;99.90
7844;DHT22;3967;48.702;9.326;2022-09-01T03:51:24;15.80;99.90
7844;DHT22;3967;48.702;9.326;2022-09-01T03:53:53;15.80;99.90
7844;DHT22;3967;48.702;9.326;2022-09-01T03:56:22;15.70;99.90
7844;DHT22;3967;48.702;9.326;2022-09-01T03:58:50;15.70;99.90
7844;DHT22;3967;48.702;9.326;2022-09-01T04:01:18;15.80;99.90
7844;DHT22;3967;48.702;9.326;2022-09-01T04:03:45;15.80;99.90
7844;DHT22;3967;48.702;9.326;2022-09-01T04:06:15;15.90;99.90
7844;DHT22;3967;48.702;9.326;2022-09-01T04:08:44;15.80;99.90
7844;DHT22;3967;48.702;9.326;2022-09-01T04:11:15;15.70;99.90
7844;DHT22;3967;48.702;9.326;2022-09-01T04:13:44;15.70;99.90
7844;DHT22;3967;48.702;9.326;2022-09-01T04:16:17;15.70;99.90
7844;DHT22;3967;48.702;9.326;2022-09-01T04:19:04;15.70;99.90
7844;DHT22;3967;48.702;9.326;2022-09-01T04:21:45;15.60;99.90
7844;DHT22;3967;48.702;9.326;2022-09-01T04:24:12;15.70;99.90
7844;DHT22;3967;48.702;9.326;2022-09-01T04:26:41;15.70;99.90
7844;DHT22;3967;48.702;9.326;2022-09-01T04:29:08;15.70;99.90
7844;DHT22;3967;48.702;9.326;2022-09-01T04:31:38;15.90;99.90
7844;DHT22;3967;48.702;9.326;2022-09-01T04:34:06;15.80;99.90
7844;DHT22;3967;48.702;9.326;2022-09-01T04:36:43;15.80;99.90
7844;DHT22;3967;48.702;9.326;2022-09-01T04:39:13;15.80;99.90
7844;DHT22;3967;48.702;9.326;2022-09-01T04:41:42;15.80;99.90
7844;DHT22;3967;48.702;9.326;2022-09-01T04:44:12;15.90;99.90
7844;DHT22;3967;48.702;9.326;2022-09-01T04:46:41;15.90;99.90
7844;DHT22;3967;48.702;9.326;2022-09-01T04:49:12;15.90;99.90
7844;DHT22;3967;48.702;9.326;2022-09-01T04:51:46;15.90;99.90
7844;DHT22;3967;48.702;9.326;2022-09-01T04:54:20;16.00;99.90
7844;DHT22;3967;48.702;9.326;2022-09-01T04:56:49;15.90;99.90
7844;DHT22;3967;48.702;9.326;2022-09-01T04:59:20;16.00;99.90
7844;DHT22;3967;48.702;9.326;2022-09-01T05:01:48;16.10;99.90
7844;DHT22;3967;48.702;9.326;2022-09-01T05:04:22;16.00;99.90
7844;DHT22;3967;48.702;9.326;2022-09-01T05:06:52;16.00;99.90
7844;DHT22;3967;48.702;9.326;2022-09-01T05:09:30;16.10;99.90
7844;DHT22;3967;48.702;9.326;2022-09-01T05:11:58;16.10;99.90
7844;DHT22;3967;48.702;9.326;2022-09-01T05:14:40;16.10;99.90
7844;DHT22;3967;48.702;9.326;2022-09-01T05:17:09;16.00;99.90
7844;DHT22;3967;48.702;9.326;2022-09-01T05:19:40;16.10;99.90
7844;DHT22;3967;48.702;9.326;2022-09-01T05:22:07;16.10;99.90
7844;DHT22;3967;48.702;9.326;2022-09-01T05:24:36;16.10;99.90
7844;DHT22;3967;48.702;9.326;2022-09-01T05:27:07;16.10;99.90
7844;DHT22;3967;48.702;9.326;2022-09-01T05:29:37;16.20;99.90
7844;DHT22;3967;48.702;9.326;2022-09-01T05:32:05;16.20;99.90
7844;DHT22;3967;48.702;9.326;2022-09-01T05:34:36;16.20;99.90
7844;DHT22;3967;48.702;9.326;2022-09-01T05:37:06;16.20;99.90
7844;DHT22;3967;48.702;9.326;2022-09-01T05:39:35;16.30;99.90
7844;DHT22;3967;48.702;9.326;2022-09-01T05:42:04;16.20;99.90
7844;DHT22;3967;48.702;9.326;2022-09-01T05:44:40;16.20;99.90
7844;DHT22;3967;48.702;9.326;2022-09-01T05:47:10;16.20;99.90
7844;DHT22;3967;48.702;9.326;2022-09-01T05:49:47;16.30;99.90
7844;DHT22;3967;48.702;9.326;2022-09-01T05:52:15;16.40;99.90
7844;DHT22;3967;48.702;9.326;2022-09-01T05:54:42;16.40;99.90
7844;DHT22;3967;48.702;9.326;2022-09-01T05:57:09;16.40;99.90
7844;DHT22;3967;48.702;9.326;2022-09-01T05:59:56;16.50;99.90
7844;DHT22;3967;48.702;9.326;2022-09-01T06:02:23;16.50;99.90
7844;DHT22;3967;48.702;9.326;2022-09-01T06:04:51;16.60;99.90
7844;DHT22;3967;48.702;9.326;2022-09-01T06:07:22;16.60;99.90
7844;DHT22;3967;48.702;9.326;2022-09-01T06:09:52;16.60;99.90
7844;DHT22;3967;48.702;9.326;2022-09-01T06:12:19;16.60;99.90
7844;DHT22;3967;48.702;9.326;2022-09-01T06:14:50;16.60;99.90
7844;DHT22;3967;48.702;9.326;2022-09-01T06:17:20;16.60;99.90
7844;DHT22;3967;48.702;9.326;2022-09-01T06:19:51;16.70;99.90
7844;DHT22;3967;48.702;9.326;2022-09-01T06:22:19;16.70;99.90
7844;DHT22;3967;48.702;9.326;2022-09-01T06:24:46;16.60;99.90
7844;DHT22;3967;48.702;9.326;2022-09-01T06:27:21;16.70;99.90
7844;DHT22;3967;48.702;9.326;2022-09-01T06:29:47;16.70;99.90
7844;DHT22;3967;48.702;9.326;2022-09-01T06:32:21;16.80;99.90
7844;DHT22;3967;48.702;9.326;2022-09-01T06:34:51;16.90;99.90
7844;DHT22;3967;48.702;9.326;2022-09-01T06:37:18;16.80;99.90
7844;DHT22;3967;48.702;9.326;2022-09-01T06:39:49;16.70;99.90
7844;DHT22;3967;48.702;9.326;2022-09-01T06:42:16;16.80;99.90
7844;DHT22;3967;48.702;9.326;2022-09-01T06:44:44;16.90;99.90
7844;DHT22;3967;48.702;9.326;2022-09-01T06:47:12;17.00;99.90
7844;DHT22;3967;48.702;9.326;2022-09-01T06:49:39;17.20;99.90
7844;DHT22;3967;48.702;9.326;2022-09-01T06:52:06;17.40;99.90
7844;DHT22;3967;48.702;9.326;2022-09-01T06:54:34;17.50;99.90
7844;DHT22;3967;48.702;9.326;2022-09-01T06:57:02;17.50;99.90
7844;DHT22;3967;48.702;9.326;2022-09-01T06:59:49;17.60;99.90
7844;DHT22;3967;48.702;9.326;2022-09-01T07:02:19;18.00;99.90
7844;DHT22;3967;48.702;9.326;2022-09-01T07:04:52;18.20;99.90
7844;DHT22;3967;48.702;9.326;2022-09-01T07:07:19;18.10;99.90
7844;DHT22;3967;48.702;9.326;2022-09-01T07:10:06;18.20;99.90
7844;DHT22;3967;48.702;9.326;2022-09-01T07:12:53;18.30;99.90
7844;DHT22;3967;48.702;9.326;2022-09-01T07:15:41;18.40;99.90
7844;DHT22;3967;48.702;9.326;2022-09-01T07:18:29;18.50;99.90
7844;DHT22;3967;48.702;9.326;2022-09-01T07:20:56;18.40;99.90
7844;DHT22;3967;48.702;9.326;2022-09-01T07:23:43;18.40;99.90
7844;DHT22;3967;48.702;9.326;2022-09-01T07:26:14;18.40;99.90
7844;DHT22;3967;48.702;9.326;2022-09-01T07:28:51;18.30;99.90
7844;DHT22;3967;48.702;9.326;2022-09-01T07:31:29;18.50;99.90
7844;DHT22;3967;48.702;9.326;2022-09-01T07:34:17;18.30;99.90
7844;DHT22;3967;48.702;9.326;2022-09-01T07:37:04;18.30;99.90
7844;DHT22;3967;48.702;9.326;2022-09-01T07:39:51;18.30;99.90
7844;DHT22;3967;48.702;9.326;2022-09-01T07:42:19;18.40;99.90
7844;DHT22;3967;48.702;9.326;2022-09-01T07:45:07;18.50;99.90
7844;DHT22;3967;48.702;9.326;2022-09-01T07:47:52;18.60;99.90
7844;DHT22;3967;48.702;9.326;2022-09-01T07:50:20;18.70;99.90
7844;DHT22;3967;48.702;9.326;2022-09-01T07:53:07;18.80;99.90
7844;DHT22;3967;48.702;9.326;2022-09-01T07:55:38;18.90;99.90
7844;DHT22;3967;48.702;9.326;2022-09-01T07:58:05;19.10;99.90
7844;DHT22;3967;48.702;9.326;2022-09-01T08:00:32;19.00;99.90
7844;DHT22;3967;48.702;9.326;2022-09-01T08:02:59;19.00;99.90
7844;DHT22;3967;48.702;9.326;2022-09-01T08:05:26;19.00;99.90
7844;DHT22;3967;48.702;9.326;2022-09-01T08:07:54;19.10;99.90
7844;DHT22;3967;48.702;9.326;2022-09-01T08:10:21;18.90;99.90
7844;DHT22;3967;48.702;9.326;2022-09-01T08:12:48;18.90;99.90
7844;DHT22;3967;48.702;9.326;2022-09-01T08:15:23;19.00;99.90
7844;DHT22;3967;48.702;9.326;2022-09-01T08:18:10;19.10;99.90
7844;DHT22;3967;48.702;9.326;2022-09-01T08:20:41;19.00;99.90
7844;DHT22;3967;48.702;9.326;2022-09-01T08:23:15;19.10;99.90
7844;DHT22;3967;48.702;9.326;2022-09-01T08:25:45;19.00;99.90
7844;DHT22;3967;48.702;9.326;2022-09-01T08:28:13;18.90;99.90
7844;DHT22;3967;48.702;9.326;2022-09-01T08:30:41;18.90;99.90
7844;DHT22;3967;48.702;9.326;2022-09-01T08:33:18;18.90;99.90
7844;DHT22;3967;48.702;9.326;2022-09-01T08:35:47;18.90;99.90
7844;DHT22;3967;48.702;9.326;2022-09-01T08:38:15;18.90;99.90
7844;DHT22;3967;48.702;9.326;2022-09-01T08:40:42;19.00;99.90
7844;DHT22;3967;48.702;9.326;2022-09-01T08:44:09;19.10;99.90
7844;DHT22;3967;48.702;9.326;2022-09-01T08:46:22;19.20;99.60
7844;DHT22;3967;48.702;9.326;2022-09-01T08:48:59;19.20;98.50
7844;DHT22;3967;48.702;9.326;2022-09-01T08:57:01;19.30;99.50
7844;DHT22;3967;48.702;9.326;2022-09-01T08:59:30;19.40;98.40
7844;DHT22;3967;48.702;9.326;2022-09-01T09:02:05;19.50;98.00
7844;DHT22;3967;48.702;9.326;2022-09-01T09:10:46;19.70;98.40
7844;DHT22;3967;48.702;9.326;2022-09-01T09:16:14;19.60;96.70
7844;DHT22;3967;48.702;9.326;2022-09-01T09:19:02;19.60;96.50
7844;DHT22;3967;48.702;9.326;2022-09-01T09:21:38;19.60;97.10
7844;DHT22;3967;48.702;9.326;2022-09-01T09:24:12;19.70;97.50
7844;DHT22;3967;48.702;9.326;2022-09-01T09:26:52;19.60;95.60
7844;DHT22;3967;48.702;9.326;2022-09-01T09:29:20;19.70;95.30
7844;DHT22;3967;48.702;9.326;2022-09-01T09:32:07;19.60;95.60
7844;DHT22;3967;48.702;9.326;2022-09-01T09:34:54;19.70;95.00
7844;DHT22;3967;48.702;9.326;2022-09-01T09:37:30;19.90;93.50
7844;DHT22;3967;48.702;9.326;2022-09-01T09:40:11;20.10;93.40
7844;DHT22;3967;48.702;9.326;2022-09-01T09:43:04;20.00;93.20
7844;DHT22;3967;48.702;9.326;2022-09-01T09:45:37;20.10;93.70
7844;DHT22;3967;48.702;9.326;2022-09-01T09:48:29;20.40;93.80
7844;DHT22;3967;48.702;9.326;2022-09-01T09:51:20;20.10;92.20
7844;DHT22;3967;48.702;9.326;2022-09-01T09:53:48;20.20;92.20
7844;DHT22;3967;48.702;9.326;2022-09-01T09:56:16;20.40;92.00
7844;DHT22;3967;48.702;9.326;2022-09-01T09:58:46;20.50;92.50
7844;DHT22;3967;48.702;9.326;2022-09-01T10:03:56;20.50;91.20
7844;DHT22;3967;48.702;9.326;2022-09-01T10:09:03;20.60;90.50
7844;DHT22;3967;48.702;9.326;2022-09-01T10:11:40;20.80;91.00
7844;DHT22;3967;48.702;9.326;2022-09-01T10:14:15;20.90;92.20
7844;DHT22;3967;48.702;9.326;2022-09-01T10:17:14;21.00;91.80
7844;DHT22;3967;48.702;9.326;2022-09-01T10:19:48;21.20;91.10
7844;DHT22;3967;48.702;9.326;2022-09-01T10:22:16;21.20;90.80
7844;DHT22;3967;48.702;9.326;2022-09-01T10:24:43;21.10;90.30
7844;DHT22;3967;48.702;9.326;2022-09-01T10:27:23;21.10;90.40
7844;DHT22;3967;48.702;9.326;2022-09-01T10:32:52;21.30;90.30
7844;DHT22;3967;48.702;9.326;2022-09-01T10:37:58;21.20;89.50
7844;DHT22;3967;48.702;9.326;2022-09-01T10:43:00;21.10;90.30
7844;DHT22;3967;48.702;9.326;2022-09-01T10:45:47;21.10;90.50
7844;DHT22;3967;48.702;9.326;2022-09-01T10:48:29;21.40;90.00
7844;DHT22;3967;48.702;9.326;2022-09-01T10:53:49;21.60;89.00
7844;DHT22;3967;48.702;9.326;2022-09-01T10:59:09;21.80;89.10
7844;DHT22;3967;48.702;9.326;2022-09-01T11:07:33;22.20;85.60
7844;DHT22;3967;48.702;9.326;2022-09-01T11:10:38;22.10;86.60
7844;DHT22;3967;48.702;9.326;2022-09-01T11:15:53;22.10;84.70
7844;DHT22;3967;48.702;9.326;2022-09-01T11:18:26;21.90;84.60
7844;DHT22;3967;48.702;9.326;2022-09-01T11:21:34;21.90;84.80
7844;DHT22;3967;48.702;9.326;2022-09-01T11:27:09;22.20;84.50
7844;DHT22;3967;48.702;9.326;2022-09-01T11:30:07;22.30;85.70
7844;DHT22;3967;48.702;9.326;2022-09-01T11:32:36;22.20;84.80
7844;DHT22;3967;48.702;9.326;2022-09-01T11:35:24;22.00;85.30
7844;DHT22;3967;48.702;9.326;2022-09-01T11:37:55;22.00;85.80
7844;DHT22;3967;48.702;9.326;2022-09-01T11:40:26;22.10;85.70
7844;DHT22;3967;48.702;9.326;2022-09-01T11:43:03;22.10;86.20
7844;DHT22;3967;48.702;9.326;2022-09-01T11:48:27;22.10;83.50
7844;DHT22;3967;48.702;9.326;2022-09-01T11:50:58;22.20;82.80
7844;DHT22;3967;48.702;9.326;2022-09-01T11:53:26;22.40;83.80
7844;DHT22;3967;48.702;9.326;2022-09-01T11:55:55;22.50;83.20
7844;DHT22;3967;48.702;9.326;2022-09-01T12:03:47;22.80;81.70
7844;DHT22;3967;48.702;9.326;2022-09-01T12:06:21;22.80;82.00
7844;DHT22;3967;48.702;9.326;2022-09-01T12:09:01;22.80;79.70
7844;DHT22;3967;48.702;9.326;2022-09-01T12:11:31;23.00;80.50
7844;DHT22;3967;48.702;9.326;2022-09-01T12:14:09;22.80;79.90
7844;DHT22;3967;48.702;9.326;2022-09-01T12:16:40;22.70;81.00
7844;DHT22;3967;48.702;9.326;2022-09-01T12:19:23;23.00;81.80
7844;DHT22;3967;48.702;9.326;2022-09-01T12:22:12;23.20;80.60
7844;DHT22;3967;48.702;9.326;2022-09-01T12:24:51;23.50;80.40
7844;DHT22;3967;48.702;9.326;2022-09-01T12:27:20;22.90;79.20
7844;DHT22;3967;48.702;9.326;2022-09-01T12:29:49;22.60;80.00
7844;DHT22;3967;48.702;9.326;2022-09-01T12:32:17;22.30;80.50
7844;DHT22;3967;48.702;9.326;2022-09-01T12:35:00;22.40;80.70
7844;DHT22;3967;48.702;9.326;2022-09-01T12:37:29;22.20;80.20
7844;DHT22;3967;48.702;9.326;2022-09-01T12:39:57;22.20;80.50
7844;DHT22;3967;48.702;9.326;2022-09-01T12:42:33;22.20;80.70
7844;DHT22;3967;48.702;9.326;2022-09-01T12:45:08;22.30;82.20
7844;DHT22;3967;48.702;9.326;2022-09-01T12:50:06;22.40;81.50
7844;DHT22;3967;48.702;9.326;2022-09-01T12:52:35;22.40;82.30
7844;DHT22;3967;48.702;9.326;2022-09-01T13:03:07;22.30;80.70
7844;DHT22;3967;48.702;9.326;2022-09-01T13:05:44;22.30;80.80
7844;DHT22;3967;48.702;9.326;2022-09-01T13:08:25;22.20;81.00
7844;DHT22;3967;48.702;9.326;2022-09-01T13:13:30;22.40;80.70
7844;DHT22;3967;48.702;9.326;2022-09-01T13:15:58;22.30;80.40
7844;DHT22;3967;48.702;9.326;2022-09-01T13:18:29;22.40;81.50
7844;DHT22;3967;48.702;9.326;2022-09-01T13:20:57;22.60;80.00
7844;DHT22;3967;48.702;9.326;2022-09-01T13:23:23;22.50;81.40
7844;DHT22;3967;48.702;9.326;2022-09-01T13:25:51;22.40;81.30
7844;DHT22;3967;48.702;9.326;2022-09-01T13:28:18;22.30;81.60
7844;DHT22;3967;48.702;9.326;2022-09-01T13:30:52;22.50;81.70
7844;DHT22;3967;48.702;9.326;2022-09-01T13:33:39;22.60;80.60
7844;DHT22;3967;48.702;9.326;2022-09-01T13:36:26;22.60;80.90
7844;DHT22;3967;48.702;9.326;2022-09-01T13:39:12;22.60;80.40
7844;DHT22;3967;48.702;9.326;2022-09-01T13:41:39;22.40;80.10
7844;DHT22;3967;48.702;9.326;2022-09-01T13:44:06;22.50;80.20
7844;DHT22;3967;48.702;9.326;2022-09-01T13:46:36;22.50;80.50
7844;DHT22;3967;48.702;9.326;2022-09-01T13:49:23;22.70;81.20
7844;DHT22;3967;48.702;9.326;2022-09-01T13:52:10;22.70;81.00
7844;DHT22;3967;48.702;9.326;2022-09-01T13:54:38;22.70;80.00
7844;DHT22;3967;48.702;9.326;2022-09-01T13:57:05;22.80;78.90
7844;DHT22;3967;48.702;9.326;2022-09-01T13:59:31;22.80;77.20
7844;DHT22;3967;48.702;9.326;2022-09-01T14:01:58;22.80;75.70
7844;DHT22;3967;48.702;9.326;2022-09-01T14:04:26;23.00;76.40
7844;DHT22;3967;48.702;9.326;2022-09-01T14:06:54;22.90;74.20
7844;DHT22;3967;48.702;9.326;2022-09-01T14:09:21;23.00;75.40
7844;DHT22;3967;48.702;9.326;2022-09-01T14:11:50;23.00;74.20
7844;DHT22;3967;48.702;9.326;2022-09-01T14:14:17;22.80;73.80
7844;DHT22;3967;48.702;9.326;2022-09-01T14:16:45;23.00;74.80
7844;DHT22;3967;48.702;9.326;2022-09-01T14:19:12;23.00;73.70
7844;DHT22;3967;48.702;9.326;2022-09-01T14:21:39;22.90;73.80
7844;DHT22;3967;48.702;9.326;2022-09-01T14:24:06;23.00;74.00
7844;DHT22;3967;48.702;9.326;2022-09-01T14:26:33;22.80;73.70
7844;DHT22;3967;48.702;9.326;2022-09-01T14:29:00;22.90;73.70
7844;DHT22;3967;48.702;9.326;2022-09-01T14:31:28;22.90;73.90
7844;DHT22;3967;48.702;9.326;2022-09-01T14:33:55;23.00;74.70
7844;DHT22;3967;48.702;9.326;2022-09-01T14:36:24;23.00;74.70
7844;DHT22;3967;48.702;9.326;2022-09-01T14:38:52;23.00;74.00
7844;DHT22;3967;48.702;9.326;2022-09-01T14:41:20;22.90;74.50
7844;DHT22;3967;48.702;9.326;2022-09-01T14:43:52;23.00;72.20
7844;DHT22;3967;48.702;9.326;2022-09-01T14:46:20;22.90;71.70
7844;DHT22;3967;48.702;9.326;2022-09-01T14:48:47;23.10;71.60
7844;DHT22;3967;48.702;9.326;2022-09-01T14:51:23;23.20;72.10
7844;DHT22;3967;48.702;9.326;2022-09-01T14:53:52;23.10;72.50
7844;DHT22;3967;48.702;9.326;2022-09-01T14:56:20;23.20;71.90
7844;DHT22;3967;48.702;9.326;2022-09-01T14:58:47;23.30;71.40
7844;DHT22;3967;48.702;9.326;2022-09-01T15:01:17;23.30;71.00
7844;DHT22;3967;48.702;9.326;2022-09-01T15:04:00;23.10;70.20
7844;DHT22;3967;48.702;9.326;2022-09-01T15:06:27;23.00;70.50
7844;DHT22;3967;48.702;9.326;2022-09-01T15:08:54;22.90;70.30
7844;DHT22;3967;48.702;9.326;2022-09-01T15:11:20;23.10;70.90
7844;DHT22;3967;48.702;9.326;2022-09-01T15:13:47;23.10;71.60
7844;DHT22;3967;48.702;9.326;2022-09-01T15:16:21;23.20;71.80
7844;DHT22;3967;48.702;9.326;2022-09-01T15:18:49;23.10;72.50
7844;DHT22;3967;48.702;9.326;2022-09-01T15:21:27;23.00;73.10
7844;DHT22;3967;48.702;9.326;2022-09-01T15:23:56;22.60;72.70
7844;DHT22;3967;48.702;9.326;2022-09-01T15:26:23;22.80;75.40
7844;DHT22;3967;48.702;9.326;2022-09-01T15:28:51;23.00;74.30
7844;DHT22;3967;48.702;9.326;2022-09-01T15:31:19;22.90;73.10
7844;DHT22;3967;48.702;9.326;2022-09-01T15:34:00;22.90;73.10
7844;DHT22;3967;48.702;9.326;2022-09-01T15:36:28;23.10;72.70
7844;DHT22;3967;48.702;9.326;2022-09-01T15:38:56;23.00;72.90
7844;DHT22;3967;48.702;9.326;2022-09-01T15:41:27;23.20;72.30
7844;DHT22;3967;48.702;9.326;2022-09-01T15:43:56;23.10;72.90
7844;DHT22;3967;48.702;9.326;2022-09-01T15:46:25;23.00;72.50
7844;DHT22;3967;48.702;9.326;2022-09-01T15:49:02;23.10;72.00
7844;DHT22;3967;48.702;9.326;2022-09-01T15:51:32;23.10;73.10
7844;DHT22;3967;48.702;9.326;2022-09-01T15:54:10;23.30;73.10
7844;DHT22;3967;48.702;9.326;2022-09-01T15:56:37;23.20;71.90
7844;DHT22;3967;48.702;9.326;2022-09-01T15:59:06;23.20;71.50
7844;DHT22;3967;48.702;9.326;2022-09-01T16:01:42;23.20;71.30
7844;DHT22;3967;48.702;9.326;2022-09-01T16:04:12;23.10;71.30
7844;DHT22;3967;48.702;9.326;2022-09-01T16:06:46;23.10;71.70
7844;DHT22;3967;48.702;9.326;2022-09-01T16:09:15;22.80;72.10
7844;DHT22;3967;48.702;9.326;2022-09-01T16:11:43;22.80;72.20
7844;DHT22;3967;48.702;9.326;2022-09-01T16:14:10;22.80;72.30
7844;DHT22;3967;48.702;9.326;2022-09-01T16:22:09;22.70;73.30
7844;DHT22;3967;48.702;9.326;2022-09-01T16:24:46;22.80;74.60
7844;DHT22;3967;48.702;9.326;2022-09-01T16:27:20;22.80;73.30
7844;DHT22;3967;48.702;9.326;2022-09-01T16:29:51;22.70;74.40
7844;DHT22;3967;48.702;9.326;2022-09-01T16:32:19;22.90;74.50
7844;DHT22;3967;48.702;9.326;2022-09-01T16:34:50;22.70;74.90
7844;DHT22;3967;48.702;9.326;2022-09-01T16:51:15;22.60;75.10
7844;DHT22;3967;48.702;9.326;2022-09-01T16:56:30;22.50;75.60
7844;DHT22;3967;48.702;9.326;2022-09-01T16:59:20;22.40;75.60
7844;DHT22;3967;48.702;9.326;2022-09-01T17:04:57;22.30;76.40
7844;DHT22;3967;48.702;9.326;2022-09-01T17:10:31;22.40;76.20
7844;DHT22;3967;48.702;9.326;2022-09-01T17:13:14;22.10;76.10
7844;DHT22;3967;48.702;9.326;2022-09-01T17:15:47;22.00;76.30
7844;DHT22;3967;48.702;9.326;2022-09-01T17:18:33;22.00;75.60
7844;DHT22;3967;48.702;9.326;2022-09-01T17:21:08;22.00;74.50
7844;DHT22;3967;48.702;9.326;2022-09-01T17:23:40;21.90;74.50
7844;DHT22;3967;48.702;9.326;2022-09-01T17:26:18;21.80;74.30
7844;DHT22;3967;48.702;9.326;2022-09-01T17:37:58;21.80;74.00
7844;DHT22;3967;48.702;9.326;2022-09-01T17:40:28;21.80;73.90
7844;DHT22;3967;48.702;9.326;2022-09-01T17:43:11;21.70;73.60
7844;DHT22;3967;48.702;9.326;2022-09-01T17:45:45;21.60;74.10
7844;DHT22;3967;48.702;9.326;2022-09-01T17:48:30;21.60;74.80
7844;DHT22;3967;48.702;9.326;2022-09-01T17:51:08;21.50;74.40
7844;DHT22;3967;48.702;9.326;2022-09-01T17:56:40;21.70;74.50
7844;DHT22;3967;48.702;9.326;2022-09-01T18:10:12;21.70;75.10
7844;DHT22;3967;48.702;9.326;2022-09-01T18:12:40;21.70;75.10
7844;DHT22;3967;48.702;9.326;2022-09-01T18:15:15;21.60;75.00
7844;DHT22;3967;48.702;9.326;2022-09-01T18:17:53;21.60;75.80
7844;DHT22;3967;48.702;9.326;2022-09-01T18:20:25;21.80;75.60
7844;DHT22;3967;48.702;9.326;2022-09-01T18:23:06;21.60;75.90
7844;DHT22;3967;48.702;9.326;2022-09-01T18:25:53;21.70;75.10
7844;DHT22;3967;48.702;9.326;2022-09-01T18:28:21;21.80;75.40
7844;DHT22;3967;48.702;9.326;2022-09-01T18:39:09;21.60;76.10
7844;DHT22;3967;48.702;9.326;2022-09-01T18:42:12;21.50;77.60
7844;DHT22;3967;48.702;9.326;2022-09-01T18:47:34;21.30;79.70